Terminal Aerodrome Forecast
Issued by NWS Cleveland, OH

Home | Current Version | Previous Version | Text Only | Print | Product List | Glossary Off
Versions: 1 2 3 4 5 6 7 8 9 10 11 12 13 14 15 16

000
FTUS41 KCLE 191700 RRA
TAFMFD
TAF
KMFD 191741Z 1918/2018 20006KT P6SM BKN008 OVC015
     FM191900 20006KT P6SM SCT008 OVC018
     FM192030 20006KT P6SM SCT018 OVC028
     FM200000 20004KT P6SM BKN035
     FM200700 00000KT 4SM BR SCT004 BKN025
     FM200900 00000KT 1/2SM FG BKN002
     FM201400 18003KT 5SM BR BKN006
     FM201600 18004KT P6SM BKN020=

USA.gov is the U.S. government's official web portal to all federal, state and local government web resources and services.